createdAt,value
2018-12-29T00:01:17.099Z,102257.84
2018-12-29T00:04:16.883Z,102380.98
2018-12-29T00:06:19.549Z,102284.96
2018-12-29T00:09:19.410Z,102389.88
2018-12-29T00:11:22.026Z,102267.13
2018-12-29T00:14:21.906Z,102379.75
2018-12-29T00:16:24.479Z,102287.14
2018-12-29T00:19:24.371Z,102386.34
2018-12-29T00:21:26.965Z,102291.47
2018-12-29T00:24:26.847Z,102397.07
2018-12-29T00:26:29.425Z,102304.61
2018-12-29T00:29:29.296Z,102403.72
2018-12-29T00:31:31.895Z,102299.36
2018-12-29T00:34:31.825Z,102421.04
2018-12-29T00:36:34.343Z,102320.36
2018-12-29T00:39:34.287Z,102431.88
2018-12-29T00:41:36.802Z,102335.98
2018-12-29T00:44:36.763Z,102438.38
2018-12-29T00:46:39.263Z,102338.88
2018-12-29T00:49:39.239Z,102426.75
2018-12-29T00:51:41.728Z,102322.89
2018-12-29T00:54:41.735Z,102430.81
2018-12-29T00:56:44.197Z,102323.87
2018-12-29T00:59:44.138Z,102416.30
2018-12-29T01:01:46.670Z,102319.72
2018-12-29T01:04:46.583Z,102428.51
2018-12-29T01:06:49.117Z,102324.27
2018-12-29T01:09:49.045Z,102417.41
2018-12-29T01:11:51.579Z,102316.59
2018-12-29T01:14:51.489Z,102411.30
2018-12-29T01:16:54.056Z,102307.66
2018-12-29T01:19:53.921Z,102401.96
2018-12-29T01:21:56.542Z,102305.64
2018-12-29T01:24:56.401Z,102410.52
2018-12-29T01:26:59.009Z,102312.21
2018-12-29T01:29:58.877Z,102398.44
2018-12-29T01:32:01.478Z,102304.17
2018-12-29T01:35:01.330Z,102392.25
2018-12-29T01:37:03.946Z,102294.98
2018-12-29T01:40:03.785Z,102401.34
2018-12-29T01:42:06.389Z,102295.13
2018-12-29T01:45:06.240Z,102388.88
2018-12-29T01:47:08.840Z,102305.10
2018-12-29T01:50:08.701Z,102396.56
2018-12-29T01:52:11.283Z,102312.64
2018-12-29T01:55:11.176Z,102414.22
2018-12-29T01:57:13.730Z,102314.69
2018-12-29T02:00:13.634Z,102418.11
2018-12-29T02:02:16.191Z,102319.03
2018-12-29T02:05:16.106Z,102413.92
2018-12-29T02:07:18.640Z,102314.98
2018-12-29T02:10:18.569Z,102428.80
2018-12-29T02:12:21.085Z,102312.39
2018-12-29T02:15:24.757Z,102406.91
2018-12-29T02:17:23.551Z,102306.67
2018-12-29T02:20:23.670Z,102404.05
2018-12-29T02:22:26.000Z,102305.34
2018-12-29T02:25:26.164Z,102420.68
2018-12-29T02:27:28.448Z,102318.61
2018-12-29T02:30:28.630Z,102407.02
2018-12-29T02:32:30.907Z,102307.09
2018-12-29T02:35:31.089Z,102415.27
2018-12-29T02:37:33.358Z,102306.36
2018-12-29T02:40:33.586Z,102409.06
2018-12-29T02:42:35.815Z,102309.91
2018-12-29T02:45:36.041Z,102413.69
2018-12-29T02:47:38.274Z,102304.75
2018-12-29T02:50:38.494Z,102404.05
2018-12-29T02:52:40.713Z,102306.78
2018-12-29T02:55:40.952Z,102403.63
2018-12-29T02:57:43.164Z,102304.82
2018-12-29T03:00:43.437Z,102415.02
2018-12-29T03:02:45.612Z,102313.64
2018-12-29T03:05:45.912Z,102411.66
2018-12-29T03:07:48.072Z,102303.08
2018-12-29T03:10:48.385Z,102395.66
2018-12-29T03:12:50.549Z,102306.98
2018-12-29T03:15:50.836Z,102382.11
2018-12-29T03:17:53.024Z,102279.35
2018-12-29T03:20:53.282Z,102382.26
2018-12-29T03:22:55.488Z,102270.66
2018-12-29T03:25:55.846Z,102379.52
2018-12-29T03:27:57.945Z,102275.61
2018-12-29T03:30:58.280Z,102381.84
2018-12-29T03:33:00.430Z,102282.59
2018-12-29T03:36:00.723Z,102376.83
2018-12-29T03:38:02.882Z,102280.24
2018-12-29T03:41:03.172Z,102385.52
2018-12-29T03:43:05.358Z,102282.44
2018-12-29T03:46:05.643Z,102371.02
2018-12-29T03:48:07.809Z,102274.90
2018-12-29T03:51:08.107Z,102371.43
2018-12-29T03:53:10.274Z,102269.80
2018-12-29T03:56:10.579Z,102377.80
2018-12-29T03:58:12.748Z,102273.02
2018-12-29T04:01:13.019Z,102365.22
2018-12-29T04:03:15.183Z,102268.41
2018-12-29T04:06:15.465Z,102366.11
2018-12-29T04:08:17.652Z,102262.66
2018-12-29T04:11:17.928Z,102361.52
2018-12-29T04:13:20.122Z,102262.58
2018-12-29T04:16:20.414Z,102350.59
2018-12-29T04:18:22.563Z,102257.40
2018-12-29T04:21:22.891Z,102352.89
2018-12-29T04:23:25.008Z,102255.33
2018-12-29T04:26:25.344Z,102350.58
2018-12-29T04:28:27.458Z,102250.17
2018-12-29T04:31:27.834Z,102351.95
2018-12-29T04:33:29.931Z,102257.55
2018-12-29T04:36:30.294Z,102364.80
2018-12-29T04:38:32.373Z,102255.80
2018-12-29T04:41:32.738Z,102356.51
2018-12-29T04:43:34.820Z,102269.11
2018-12-29T04:46:35.215Z,102374.36
2018-12-29T04:48:37.270Z,102277.94
2018-12-29T04:51:37.678Z,102371.92
2018-12-29T04:53:42.292Z,102263.73
2018-12-29T04:56:40.143Z,102372.20
2018-12-29T04:58:44.742Z,102275.64
2018-12-29T05:01:42.626Z,102383.89
2018-12-29T05:03:47.183Z,102286.72
2018-12-29T05:06:45.081Z,102388.05
2018-12-29T05:08:49.634Z,102299.00
2018-12-29T05:11:51.832Z,102393.20
2018-12-29T05:13:52.078Z,102305.13
2018-12-29T05:16:54.294Z,102404.16
2018-12-29T05:18:54.519Z,102304.10
2018-12-29T05:21:56.770Z,102414.32
2018-12-29T05:23:56.965Z,102322.39
2018-12-29T05:26:59.229Z,102415.38
2018-12-29T05:28:59.412Z,102317.16
2018-12-29T05:32:01.695Z,102416.45
2018-12-29T05:34:01.848Z,102311.63
2018-12-29T05:37:04.168Z,102417.97
2018-12-29T05:39:04.294Z,102314.20
2018-12-29T05:42:06.604Z,102420.95
2018-12-29T05:44:06.749Z,102312.94
2018-12-29T05:47:09.051Z,102424.88
2018-12-29T05:49:09.192Z,102326.30
2018-12-29T05:52:11.512Z,102430.16
2018-12-29T05:54:11.646Z,102324.56
2018-12-29T05:57:13.986Z,102425.41
2018-12-29T05:59:14.104Z,102322.09
2018-12-29T06:02:16.426Z,102412.28
2018-12-29T06:04:16.561Z,102306.17
2018-12-29T06:07:18.873Z,102406.97
2018-12-29T06:09:19.013Z,102300.64
2018-12-29T06:12:21.335Z,102399.66
2018-12-29T06:14:21.473Z,102294.44
2018-12-29T06:17:23.791Z,102395.38
2018-12-29T06:19:23.927Z,102292.75
2018-12-29T06:22:26.234Z,102405.14
2018-12-29T06:24:26.391Z,102293.86
2018-12-29T06:27:28.679Z,102392.55
2018-12-29T06:29:28.851Z,102295.91
2018-12-29T06:32:31.143Z,102403.77
2018-12-29T06:34:31.316Z,102313.59
2018-12-29T06:37:33.583Z,102411.73
2018-12-29T06:39:33.773Z,102309.69
2018-12-29T06:42:36.090Z,102416.34
2018-12-29T06:44:36.236Z,102309.44
2018-12-29T06:47:38.561Z,102415.49
2018-12-29T06:49:38.675Z,102313.18
2018-12-29T06:52:41.015Z,102421.19
2018-12-29T06:54:41.147Z,102316.25
2018-12-29T06:57:43.475Z,102424.97
2018-12-29T06:59:43.593Z,102325.59
2018-12-29T07:02:45.935Z,102426.73
2018-12-29T07:04:46.045Z,102325.31
2018-12-29T07:07:48.419Z,102425.95
2018-12-29T07:09:48.489Z,102329.36
2018-12-29T07:12:50.967Z,102424.55
2018-12-29T07:14:51.120Z,102335.05
2018-12-29T07:17:53.436Z,102439.70
2018-12-29T07:19:53.681Z,102338.00
2018-12-29T07:22:55.917Z,102445.02
2018-12-29T07:24:56.124Z,102344.11
2018-12-29T07:27:58.385Z,102451.67
2018-12-29T07:29:58.578Z,102347.53
2018-12-29T07:33:00.880Z,102455.35
2018-12-29T07:35:01.017Z,102355.39
2018-12-29T07:38:03.350Z,102461.70
2018-12-29T07:40:03.477Z,102361.03
2018-12-29T07:43:05.831Z,102467.92
2018-12-29T07:45:05.914Z,102364.91
2018-12-29T07:48:08.296Z,102465.56
2018-12-29T07:50:08.353Z,102370.69
2018-12-29T07:53:10.763Z,102484.13
2018-12-29T07:55:10.793Z,102384.16
2018-12-29T07:58:13.244Z,102488.59
2018-12-29T08:00:13.262Z,102390.23
2018-12-29T08:03:15.701Z,102494.70
2018-12-29T08:05:15.713Z,102395.64
2018-12-29T08:08:18.168Z,102495.08
2018-12-29T08:10:18.169Z,102395.91
2018-12-29T08:13:20.614Z,102503.02
2018-12-29T08:15:20.613Z,102401.20
2018-12-29T08:18:23.099Z,102503.56
2018-12-29T08:20:23.078Z,102410.16
2018-12-29T08:23:25.574Z,102504.72
2018-12-29T08:25:25.532Z,102393.59
2018-12-29T08:28:28.065Z,102493.28
2018-12-29T08:30:27.985Z,102400.41
2018-12-29T08:33:30.603Z,102504.54
2018-12-29T08:35:30.444Z,102401.59
2018-12-29T08:38:33.056Z,102507.30
2018-12-29T08:40:32.901Z,102398.19
2018-12-29T08:43:35.503Z,102502.00
2018-12-29T08:45:35.384Z,102401.09
2018-12-29T08:48:37.958Z,102500.11
2018-12-29T08:50:37.869Z,102395.63
2018-12-29T08:53:40.395Z,102497.86
2018-12-29T08:55:40.323Z,102404.62
2018-12-29T08:58:42.843Z,102507.14
2018-12-29T09:00:42.777Z,102407.09
2018-12-29T09:03:45.295Z,102502.95
2018-12-29T09:05:47.889Z,102400.11
2018-12-29T09:08:47.739Z,102500.75
2018-12-29T09:10:50.346Z,102404.58
2018-12-29T09:13:50.187Z,102497.29
2018-12-29T09:15:52.811Z,102406.15
2018-12-29T09:18:52.642Z,102494.80
2018-12-29T09:20:55.260Z,102408.34
2018-12-29T09:23:55.223Z,102512.18
2018-12-29T09:25:57.710Z,102409.02
2018-12-29T09:28:57.701Z,102506.39
2018-12-29T09:31:00.170Z,102417.59
2018-12-29T09:34:00.172Z,102516.61
2018-12-29T09:36:02.610Z,102421.38
2018-12-29T09:39:02.648Z,102514.04
2018-12-29T09:41:05.062Z,102406.39
2018-12-29T09:44:05.129Z,102505.26
2018-12-29T09:46:07.511Z,102403.41
2018-12-29T09:49:07.584Z,102495.94
2018-12-29T09:51:09.964Z,102416.08
2018-12-29T09:54:10.109Z,102498.45
2018-12-29T09:56:12.414Z,102401.89
2018-12-29T09:59:12.583Z,102491.81
2018-12-29T10:01:14.863Z,102401.56
2018-12-29T10:04:15.056Z,102495.70
2018-12-29T10:06:17.316Z,102400.91
2018-12-29T10:09:17.536Z,102495.14
2018-12-29T10:11:19.761Z,102389.84
2018-12-29T10:14:19.997Z,102487.56
2018-12-29T10:16:22.219Z,102392.78
2018-12-29T10:19:22.474Z,102486.97
2018-12-29T10:21:24.672Z,102388.50
2018-12-29T10:24:24.964Z,102489.33
2018-12-29T10:26:27.111Z,102389.60
2018-12-29T10:29:27.437Z,102492.12
2018-12-29T10:31:32.527Z,102391.30
2018-12-29T10:34:29.903Z,102483.09
2018-12-29T10:36:34.975Z,102388.69
2018-12-29T10:39:32.361Z,102478.77
2018-12-29T10:41:37.416Z,102385.13
2018-12-29T10:44:34.822Z,102477.16
2018-12-29T10:46:39.873Z,102385.73
2018-12-29T10:49:37.291Z,102478.27
2018-12-29T10:51:42.336Z,102377.55
2018-12-29T10:54:39.751Z,102467.11
2018-12-29T10:56:44.794Z,102377.62
2018-12-29T10:59:42.209Z,102472.73
2018-12-29T11:01:47.247Z,102385.20
2018-12-29T11:04:44.680Z,102478.38
2018-12-29T11:06:49.719Z,102381.21
2018-12-29T11:09:47.129Z,102460.34
2018-12-29T11:11:52.186Z,102370.30
2018-12-29T11:14:49.575Z,102458.36
2018-12-29T11:16:54.680Z,102357.78
2018-12-29T11:19:52.022Z,102452.23
2018-12-29T11:21:57.140Z,102357.20
2018-12-29T11:24:54.464Z,102453.08
2018-12-29T11:27:02.074Z,102356.33
2018-12-29T11:29:56.950Z,102454.75
2018-12-29T11:32:04.532Z,102356.44
2018-12-29T11:34:59.459Z,102448.02
2018-12-29T11:37:07.029Z,102343.09
2018-12-29T11:40:01.922Z,102420.13
2018-12-29T11:42:09.506Z,102323.80
2018-12-29T11:45:04.375Z,102415.88
2018-12-29T11:47:11.955Z,102311.27
2018-12-29T11:50:06.856Z,102407.34
2018-12-29T11:52:14.424Z,102304.38
2018-12-29T11:55:09.332Z,102405.34
2018-12-29T11:57:16.881Z,102290.81
2018-12-29T12:00:11.806Z,102389.64
2018-12-29T12:02:24.454Z,102278.94
2018-12-29T12:05:14.266Z,102379.11
2018-12-29T12:07:21.772Z,102285.92
2018-12-29T12:10:16.738Z,102380.34
2018-12-29T12:12:24.234Z,102277.77
2018-12-29T12:15:19.209Z,102369.85
2018-12-29T12:17:26.688Z,102265.31
2018-12-29T12:20:21.682Z,102352.58
2018-12-29T12:22:29.141Z,102250.66
2018-12-29T12:25:24.151Z,102342.88
2018-12-29T12:27:31.590Z,102237.73
2018-12-29T12:30:26.625Z,102333.86
2018-12-29T12:32:34.028Z,102229.66
2018-12-29T12:35:29.100Z,102335.72
2018-12-29T12:37:36.472Z,102215.42
2018-12-29T12:40:31.563Z,102323.11
2018-12-29T12:42:38.945Z,102233.04
2018-12-29T12:45:34.034Z,102330.65
2018-12-29T12:47:41.411Z,102227.89
2018-12-29T12:50:36.553Z,102332.38
2018-12-29T12:52:43.852Z,102232.52
2018-12-29T12:55:39.111Z,102347.56
2018-12-29T12:57:46.328Z,102245.20
2018-12-29T13:00:41.551Z,102339.00
2018-12-29T13:02:48.778Z,102218.37
2018-12-29T13:05:44.004Z,102310.39
2018-12-29T13:07:51.329Z,102202.38
2018-12-29T13:10:46.480Z,102307.41
2018-12-29T13:12:53.798Z,102204.33
2018-12-29T13:15:48.954Z,102312.13
2018-12-29T13:17:56.238Z,102206.68
2018-12-29T13:20:51.423Z,102307.81
2018-12-29T13:22:58.681Z,102200.44
2018-12-29T13:25:53.906Z,102302.33
2018-12-29T13:28:01.126Z,102196.39
2018-12-29T13:30:56.399Z,102284.47
2018-12-29T13:33:03.594Z,102183.89
2018-12-29T13:35:58.887Z,102300.87
2018-12-29T13:38:06.042Z,102193.88
2018-12-29T13:41:01.394Z,102299.73
2018-12-29T13:43:08.517Z,102187.42
2018-12-29T13:46:03.867Z,102301.63
2018-12-29T13:48:10.952Z,102208.10
2018-12-29T13:51:06.391Z,102309.81
2018-12-29T13:53:13.404Z,102204.78
2018-12-29T13:56:08.795Z,102306.52
2018-12-29T13:58:15.862Z,102198.06
2018-12-29T14:01:11.248Z,102320.77
2018-12-29T14:03:18.340Z,102213.77
2018-12-29T14:06:13.681Z,102337.64
2018-12-29T14:08:21.126Z,102244.27
2018-12-29T14:11:16.154Z,102344.77
2018-12-29T14:13:23.572Z,102244.06
2018-12-29T14:16:19.897Z,102359.11
2018-12-29T14:18:28.416Z,102251.38
2018-12-29T14:21:22.376Z,102347.73
2018-12-29T14:23:28.444Z,102245.33
2018-12-29T14:26:24.850Z,102334.52
2018-12-29T14:28:30.891Z,102234.42
2018-12-29T14:31:27.306Z,102329.12
2018-12-29T14:33:33.339Z,102224.80
2018-12-29T14:36:29.781Z,102325.29
2018-12-29T14:38:35.795Z,102227.31
2018-12-29T14:41:32.232Z,102327.59
2018-12-29T14:43:38.253Z,102231.38
2018-12-29T14:46:34.726Z,102331.83
2018-12-29T14:48:40.686Z,102221.30
2018-12-29T14:51:37.185Z,102330.03
2018-12-29T14:53:43.249Z,102223.51
2018-12-29T14:56:39.655Z,102324.51
2018-12-29T14:58:45.587Z,102221.64
2018-12-29T15:01:42.138Z,102323.30
2018-12-29T15:03:48.035Z,102208.86
2018-12-29T15:06:44.600Z,102281.55
2018-12-29T15:08:50.478Z,102177.38
2018-12-29T15:11:47.058Z,102278.02
2018-12-29T15:13:52.927Z,102166.97
2018-12-29T15:16:53.944Z,102259.12
2018-12-29T15:18:56.757Z,102145.81
2018-12-29T15:21:56.414Z,102249.77
2018-12-29T15:23:57.828Z,102131.72
2018-12-29T15:26:58.913Z,102240.11
2018-12-29T15:29:00.270Z,102135.53
2018-12-29T15:32:01.382Z,102232.63
2018-12-29T15:34:02.720Z,102122.33
2018-12-29T15:37:03.843Z,102235.22
2018-12-29T15:39:05.162Z,102115.31
2018-12-29T15:42:06.329Z,102230.19
2018-12-29T15:44:07.622Z,102131.23
2018-12-29T15:47:08.792Z,102257.45
2018-12-29T15:49:10.094Z,102149.55
2018-12-29T15:52:11.260Z,102248.65
2018-12-29T15:54:12.553Z,102145.30
2018-12-29T15:57:13.697Z,102255.98
2018-12-29T15:59:14.998Z,102170.86
2018-12-29T16:02:16.162Z,102293.95
2018-12-29T16:04:17.463Z,102201.83
2018-12-29T16:07:18.602Z,102299.76
2018-12-29T16:09:19.984Z,102201.20
2018-12-29T16:12:21.083Z,102305.48
2018-12-29T16:14:22.407Z,102204.75
2018-12-29T16:17:23.538Z,102316.84
2018-12-29T16:19:24.907Z,102215.48
2018-12-29T16:22:25.977Z,102317.22
2018-12-29T16:24:27.369Z,102204.33
2018-12-29T16:27:28.476Z,102300.94
2018-12-29T16:29:29.816Z,102199.70
2018-12-29T16:32:30.906Z,102291.25
2018-12-29T16:34:32.290Z,102178.36
2018-12-29T16:37:33.349Z,102278.24
2018-12-29T16:39:34.759Z,102175.52
2018-12-29T16:42:35.809Z,102252.58
2018-12-29T16:44:37.216Z,102160.61
2018-12-29T16:47:38.285Z,102263.94
2018-12-29T16:49:39.671Z,102154.59
2018-12-29T16:52:40.783Z,102255.64
2018-12-29T16:54:42.134Z,102149.66
2018-12-29T16:57:43.300Z,102254.31
2018-12-29T16:59:44.619Z,102156.96
2018-12-29T17:02:45.785Z,102251.16
2018-12-29T17:04:47.070Z,102150.55
2018-12-29T17:07:48.240Z,102248.38
2018-12-29T17:09:49.524Z,102150.31
2018-12-29T17:12:50.875Z,102259.11
2018-12-29T17:14:51.979Z,102139.08
2018-12-29T17:17:53.343Z,102237.02
2018-12-29T17:19:54.435Z,102164.38
2018-12-29T17:22:55.842Z,102226.61
2018-12-29T17:24:56.884Z,102149.80
2018-12-29T17:27:58.308Z,102232.29
2018-12-29T17:29:59.340Z,102120.23
2018-12-29T17:33:00.777Z,102222.30
2018-12-29T17:35:01.819Z,102109.98
2018-12-29T17:38:03.265Z,102211.94
2018-12-29T17:40:04.262Z,102108.41
2018-12-29T17:43:05.724Z,102201.97
2018-12-29T17:45:06.717Z,102077.57
2018-12-29T17:48:08.214Z,102189.69
2018-12-29T17:50:09.173Z,102085.06
2018-12-29T17:53:10.685Z,102197.26
2018-12-29T17:55:11.630Z,102089.04
2018-12-29T17:58:13.143Z,102197.83
2018-12-29T18:00:14.108Z,102102.38
2018-12-29T18:03:19.496Z,102204.66
2018-12-29T18:05:16.559Z,102096.08
2018-12-29T18:08:21.938Z,102201.45
2018-12-29T18:10:19.037Z,102080.97
2018-12-29T18:13:24.436Z,102196.56
2018-12-29T18:15:21.504Z,102104.86
2018-12-29T18:18:26.902Z,102220.88
2018-12-29T18:20:23.969Z,102108.17
2018-12-29T18:23:29.403Z,102201.05
2018-12-29T18:25:26.446Z,102090.20
2018-12-29T18:28:31.840Z,102186.54
2018-12-29T18:30:28.916Z,102084.75
2018-12-29T18:33:37.291Z,102176.86
2018-12-29T18:35:31.385Z,102076.98
2018-12-29T18:38:36.753Z,102201.66
2018-12-29T18:40:33.850Z,102117.76
2018-12-29T18:43:39.249Z,102254.25
2018-12-29T18:45:38.512Z,102142.45
2018-12-29T18:48:43.058Z,102230.88
2018-12-29T18:50:40.989Z,102118.46
2018-12-29T18:53:44.310Z,102209.04
2018-12-29T18:55:43.465Z,102096.55
2018-12-29T18:58:46.779Z,102192.41
2018-12-29T19:00:45.915Z,102092.05
2018-12-29T19:03:49.224Z,102174.72
2018-12-29T19:05:48.354Z,102062.64
2018-12-29T19:08:51.709Z,102179.57
2018-12-29T19:10:50.855Z,102062.48
2018-12-29T19:13:54.179Z,102171.26
2018-12-29T19:15:53.269Z,102064.93
2018-12-29T19:18:56.659Z,102170.73
2018-12-29T19:20:55.755Z,102057.97
2018-12-29T19:23:59.124Z,102156.26
2018-12-29T19:25:58.229Z,102044.36
2018-12-29T19:29:01.614Z,102131.41
2018-12-29T19:31:00.673Z,102021.59
2018-12-29T19:34:04.052Z,102122.41
2018-12-29T19:36:03.090Z,102015.59
2018-12-29T19:39:06.539Z,102113.85
2018-12-29T19:41:05.642Z,102003.11
2018-12-29T19:44:09.046Z,102099.30
2018-12-29T19:46:08.104Z,102000.06
2018-12-29T19:49:11.485Z,102096.17
2018-12-29T19:51:10.572Z,101987.95
2018-12-29T19:54:14.012Z,102092.76
2018-12-29T19:56:13.015Z,101992.02
2018-12-29T19:59:16.451Z,102083.96
2018-12-29T20:01:15.518Z,101973.30
2018-12-29T20:04:18.935Z,102069.41
2018-12-29T20:06:17.986Z,101970.17
2018-12-29T20:09:21.392Z,102085.15
2018-12-29T20:11:20.428Z,101976.70
2018-12-29T20:14:24.348Z,102079.48
2018-12-29T20:16:22.903Z,101976.70
2018-12-29T20:19:26.381Z,102086.80
2018-12-29T20:21:25.371Z,101989.09
2018-12-29T20:24:28.864Z,102086.97
2018-12-29T20:26:27.810Z,101983.72
2018-12-29T20:29:31.373Z,102084.45
2018-12-29T20:31:30.275Z,101974.03
2018-12-29T20:34:33.848Z,102083.19
2018-12-29T20:36:32.721Z,101979.66
2018-12-29T20:39:36.308Z,102082.11
2018-12-29T20:41:35.203Z,101977.39
2018-12-29T20:44:38.773Z,102080.30
2018-12-29T20:46:37.668Z,101976.80
2018-12-29T20:49:41.251Z,102086.34
2018-12-29T20:51:40.149Z,101974.26
2018-12-29T20:54:43.719Z,102083.05
2018-12-29T20:56:42.786Z,101973.04
2018-12-29T20:59:46.176Z,102052.55
2018-12-29T21:01:45.181Z,101937.89
2018-12-29T21:04:48.622Z,102047.03
2018-12-29T21:06:47.640Z,101933.62
2018-12-29T21:09:51.100Z,102030.22
2018-12-29T21:11:50.121Z,101927.30
2018-12-29T21:14:53.533Z,102021.50
2018-12-29T21:16:52.580Z,101919.92
2018-12-29T21:19:55.995Z,102012.45
2018-12-29T21:21:55.057Z,101909.56
2018-12-29T21:24:58.458Z,101997.13
2018-12-29T21:26:57.537Z,101896.04
2018-12-29T21:30:00.997Z,102006.37
2018-12-29T21:32:00.044Z,101888.05
2018-12-29T21:35:03.478Z,101986.84
2018-12-29T21:37:02.520Z,101885.66
2018-12-29T21:40:06.037Z,101981.05
2018-12-29T21:42:04.986Z,101884.05
2018-12-29T21:45:08.529Z,101980.92
2018-12-29T21:47:07.467Z,101883.23
2018-12-29T21:50:10.988Z,102001.40
2018-12-29T21:52:09.966Z,101894.23
2018-12-29T21:55:13.457Z,101996.79
2018-12-29T21:57:12.410Z,101886.02
2018-12-29T22:00:16.093Z,101980.85
2018-12-29T22:02:14.866Z,101874.25
2018-12-29T22:05:18.512Z,101985.69
2018-12-29T22:07:17.324Z,101867.95
2018-12-29T22:10:20.974Z,101977.92
2018-12-29T22:12:19.771Z,101866.03
2018-12-29T22:15:23.451Z,101962.09
2018-12-29T22:17:22.218Z,101861.48
2018-12-29T22:20:33.066Z,101963.16
2018-12-29T22:22:24.683Z,101869.80
2018-12-29T22:25:28.381Z,101964.11
2018-12-29T22:27:27.133Z,101842.06
2018-12-29T22:30:30.875Z,101948.52
2018-12-29T22:32:29.581Z,101844.58
2018-12-29T22:35:33.348Z,101940.34
2018-12-29T22:37:32.033Z,101852.16
2018-12-29T22:40:35.808Z,101950.50
2018-12-29T22:42:34.492Z,101832.56
2018-12-29T22:45:38.301Z,101939.75
2018-12-29T22:47:36.947Z,101840.64
2018-12-29T22:50:41.258Z,101962.65
2018-12-29T22:52:39.393Z,101850.66
2018-12-29T22:55:43.224Z,101961.90
2018-12-29T22:57:41.839Z,101847.09
2018-12-29T23:00:45.788Z,101961.84
2018-12-29T23:02:44.302Z,101843.17
2018-12-29T23:05:48.253Z,101957.15
2018-12-29T23:07:46.759Z,101848.73
2018-12-29T23:10:50.716Z,101955.91
2018-12-29T23:12:49.207Z,101847.17
2018-12-29T23:15:54.458Z,101949.35
2018-12-29T23:17:51.648Z,101835.56
2018-12-29T23:20:56.917Z,101930.71
2018-12-29T23:22:54.091Z,101831.77
2018-12-29T23:25:59.378Z,101937.67
2018-12-29T23:27:56.566Z,101822.20
2018-12-29T23:31:01.843Z,101911.36
2018-12-29T23:32:59.038Z,101806.09
2018-12-29T23:36:04.288Z,101929.65
2018-12-29T23:38:01.497Z,101819.97
2018-12-29T23:41:06.755Z,101914.02
2018-12-29T23:43:04.034Z,101798.80
2018-12-29T23:46:09.227Z,101899.48
2018-12-29T23:48:06.413Z,101801.14
2018-12-29T23:51:11.692Z,101908.22
2018-12-29T23:53:09.087Z,101802.95
2018-12-29T23:56:14.147Z,101913.54
2018-12-29T23:58:11.375Z,101815.35
